Time;durP1;ratioP1;P1;durP2;ratioP2;P2;SDS_P1;SDS_P2;PMS_P1;PMS_P2;Temp;Humidity;BMP_temperature;BMP_pressure;BME280_temperature;BME280_humidity;BME280_pressure;Samples;Min_cycle;Max_cycle;Signal;HPM_P1;HPM_P2
2020/12/25 00:01:33;;;;;;;7.40;5.93;;;3.60;99.90;;;;;;4976568;28;20461;-65
2020/12/25 00:04:00;;;;;;;6.80;5.53;;;3.60;99.90;;;;;;4975716;28;20477;-65
2020/12/25 00:06:34;;;;;;;6.27;5.40;;;3.60;99.90;;;;;;4977564;28;20439;-65
2020/12/25 00:09:01;;;;;;;6.43;4.73;;;3.60;99.90;;;;;;4977049;28;20455;-66
2020/12/25 00:11:31;;;;;;;6.57;5.80;;;3.70;99.90;;;;;;4975758;28;20470;-65
2020/12/25 00:13:58;;;;;;;5.93;5.53;;;3.60;99.90;;;;;;4975892;28;20494;-65
2020/12/25 00:16:25;;;;;;;8.30;5.23;;;3.60;99.90;;;;;;4975651;28;20810;-66
2020/12/25 00:18:52;;;;;;;8.77;5.60;;;3.60;99.90;;;;;;4975412;28;20451;-66
2020/12/25 00:21:19;;;;;;;6.00;5.03;;;3.60;99.90;;;;;;4975532;28;20462;-65
2020/12/25 00:23:45;;;;;;;6.30;5.47;;;3.60;99.90;;;;;;4975334;28;20482;-65
2020/12/25 00:26:20;;;;;;;7.73;5.37;;;3.60;99.90;;;;;;4975532;28;20450;-65
2020/12/25 00:28:46;;;;;;;6.53;5.93;;;3.60;99.90;;;;;;4975333;28;20459;-65
2020/12/25 00:31:21;;;;;;;7.33;6.23;;;3.60;99.90;;;;;;4975226;28;20483;-65
2020/12/25 00:33:47;;;;;;;6.57;5.80;;;3.60;99.90;;;;;;4974485;28;21006;-65
2020/12/25 00:36:13;;;;;;;6.70;6.03;;;3.50;99.90;;;;;;4975522;28;20463;-65
2020/12/25 00:38:40;;;;;;;6.13;5.10;;;3.50;99.90;;;;;;4975781;28;20582;-65
2020/12/25 00:41:06;;;;;;;6.00;5.40;;;3.60;99.90;;;;;;4975102;28;20455;-65
2020/12/25 00:43:32;;;;;;;7.30;6.43;;;3.60;99.90;;;;;;4975206;28;20479;-65
2020/12/25 00:45:58;;;;;;;6.10;5.40;;;3.70;99.90;;;;;;4974040;28;20940;-66
2020/12/25 00:48:27;;;;;;;6.07;5.30;;;3.60;99.90;;;;;;4975959;28;20456;-66
2020/12/25 00:50:53;;;;;;;7.83;5.43;;;3.60;99.90;;;;;;4975571;28;20479;-66
2020/12/25 00:53:19;;;;;;;6.07;5.47;;;3.50;99.90;;;;;;4975067;28;20471;-66
2020/12/25 00:55:46;;;;;;;9.47;6.20;;;3.60;99.90;;;;;;4975190;28;20466;-66
2020/12/25 00:58:12;;;;;;;6.10;5.50;;;3.50;99.90;;;;;;4976223;28;20501;-66
2020/12/25 01:00:38;;;;;;;6.97;5.70;;;3.50;99.90;;;;;;4976967;28;20458;-66
2020/12/25 01:03:04;;;;;;;8.13;5.63;;;3.50;99.90;;;;;;4977500;28;20975;-66
2020/12/25 01:05:31;;;;;;;7.23;5.77;;;3.40;99.90;;;;;;4977178;28;20456;-66
2020/12/25 01:07:58;;;;;;;5.90;5.13;;;3.40;99.90;;;;;;4979549;28;20455;-66
2020/12/25 01:10:24;;;;;;;7.27;6.57;;;3.40;99.90;;;;;;4987398;28;20489;-66
2020/12/25 01:12:50;;;;;;;6.93;6.23;;;3.30;99.90;;;;;;4989323;28;20483;-66
2020/12/25 01:15:16;;;;;;;6.20;5.60;;;3.40;99.90;;;;;;4990008;28;20454;-66
2020/12/25 01:17:43;;;;;;;5.97;5.30;;;3.40;99.90;;;;;;4989068;28;20482;-66
2020/12/25 01:20:09;;;;;;;10.33;5.77;;;3.30;99.90;;;;;;4987634;28;20455;-66
2020/12/25 01:22:36;;;;;;;8.10;6.10;;;3.50;99.90;;;;;;4987370;28;20471;-66
2020/12/25 01:25:02;;;;;;;8.43;6.30;;;3.40;99.90;;;;;;4984742;28;20980;-66
2020/12/25 01:27:29;;;;;;;9.27;6.20;;;3.40;99.90;;;;;;4982428;28;20466;-66
2020/12/25 01:29:55;;;;;;;6.90;5.53;;;3.40;99.90;;;;;;4983179;28;20479;-66
2020/12/25 01:32:21;;;;;;;9.20;6.60;;;3.40;99.90;;;;;;4975475;28;20950;-66
2020/12/25 01:34:48;;;;;;;6.63;5.97;;;3.30;99.90;;;;;;4970846;28;20584;-66
2020/12/25 01:37:14;;;;;;;7.40;6.10;;;3.40;99.90;;;;;;4974186;28;20537;-66
2020/12/25 01:39:41;;;;;;;6.03;5.43;;;3.30;99.90;;;;;;4984553;28;20455;-66
2020/12/25 01:42:07;;;;;;;6.43;5.77;;;3.30;99.90;;;;;;4985813;28;20451;-66
2020/12/25 01:44:33;;;;;;;11.33;7.40;;;3.30;99.90;;;;;;4986378;28;20451;-66
2020/12/25 01:47:01;;;;;;;6.30;4.90;;;3.40;99.90;;;;;;4974035;28;20451;-65
2020/12/25 01:49:27;;;;;;;6.57;5.70;;;3.50;99.90;;;;;;4973799;28;20538;-66
2020/12/25 01:51:54;;;;;;;8.23;5.97;;;3.20;99.90;;;;;;4973867;28;20447;-66
2020/12/25 01:54:20;;;;;;;5.90;5.40;;;3.10;99.90;;;;;;4973859;28;20473;-65
2020/12/25 01:56:47;;;;;;;8.27;5.60;;;3.00;99.90;;;;;;4973889;28;20450;-65
2020/12/25 01:59:14;;;;;;;6.73;5.70;;;2.90;99.90;;;;;;4973574;28;20461;-65
2020/12/25 02:01:40;;;;;;;7.27;5.40;;;2.70;99.90;;;;;;4973423;28;20474;-66
2020/12/25 02:04:07;;;;;;;8.40;5.90;;;2.60;99.90;;;;;;4972944;28;20881;-66
2020/12/25 02:06:38;;;;;;;7.00;5.50;;;2.60;99.90;;;;;;4973528;28;20464;-66
2020/12/25 02:09:04;;;;;;;7.13;6.27;;;2.60;99.90;;;;;;4973597;28;20455;-65
2020/12/25 02:11:32;;;;;;;8.83;5.80;;;2.60;99.90;;;;;;4973499;28;20888;-65
2020/12/25 02:13:59;;;;;;;8.87;6.30;;;2.50;99.90;;;;;;4972745;28;21022;-65
2020/12/25 02:16:25;;;;;;;10.80;6.80;;;2.50;99.90;;;;;;4972886;28;20989;-66
2020/12/25 02:18:51;;;;;;;9.27;5.67;;;2.50;99.90;;;;;;4973404;28;20462;-65
2020/12/25 02:21:18;;;;;;;6.50;5.90;;;2.40;99.90;;;;;;4972601;28;20452;-66
2020/12/25 02:23:45;;;;;;;8.50;6.07;;;2.30;99.90;;;;;;4973220;28;20473;-66
2020/12/25 02:26:11;;;;;;;7.67;5.93;;;2.30;99.90;;;;;;4973268;28;20455;-66
2020/12/25 02:28:40;;;;;;;8.13;5.57;;;2.20;99.90;;;;;;4973307;28;20448;-66
2020/12/25 02:31:07;;;;;;;9.37;5.77;;;2.20;99.90;;;;;;4973123;28;20479;-66
2020/12/25 02:33:33;;;;;;;5.83;5.43;;;2.20;99.90;;;;;;4972925;28;20476;-66
2020/12/25 02:36:00;;;;;;;8.20;6.57;;;2.10;99.90;;;;;;4973694;28;20471;-66
2020/12/25 02:38:27;;;;;;;6.87;5.83;;;2.00;99.90;;;;;;4973103;28;20459;-65
2020/12/25 02:40:54;;;;;;;8.83;5.73;;;2.10;99.90;;;;;;4972663;28;20539;-66
2020/12/25 02:43:20;;;;;;;8.57;6.30;;;2.00;99.90;;;;;;4973336;28;20843;-66
2020/12/25 02:45:46;;;;;;;8.53;5.80;;;2.10;99.90;;;;;;4972713;28;20461;-66
2020/12/25 02:48:12;;;;;;;7.00;6.30;;;2.20;99.90;;;;;;4972962;28;20472;-66
2020/12/25 02:50:39;;;;;;;9.00;6.43;;;2.10;99.90;;;;;;4972808;28;20486;-66
2020/12/25 02:53:05;;;;;;;6.37;5.73;;;2.00;99.90;;;;;;4972974;28;20503;-66
2020/12/25 02:55:32;;;;;;;6.73;5.50;;;1.90;99.90;;;;;;4973044;28;20461;-66
2020/12/25 02:57:58;;;;;;;6.53;5.73;;;1.90;99.90;;;;;;4973138;28;20865;-66
2020/12/25 03:00:25;;;;;;;6.43;5.67;;;1.80;99.90;;;;;;4972493;28;20506;-66
2020/12/25 03:02:51;;;;;;;6.33;4.87;;;1.70;99.90;;;;;;4972866;28;20475;-66
2020/12/25 03:05:17;;;;;;;10.57;5.27;;;1.70;99.90;;;;;;4972491;28;20452;-66
2020/12/25 03:07:44;;;;;;;6.40;5.67;;;1.70;99.90;;;;;;4973180;28;20459;-65
2020/12/25 03:10:10;;;;;;;9.50;5.13;;;1.70;99.90;;;;;;4974369;28;20479;-66
2020/12/25 03:12:37;;;;;;;5.27;4.77;;;1.70;99.90;;;;;;4976292;28;20906;-67
2020/12/25 03:15:04;;;;;;;9.70;5.23;;;1.60;99.90;;;;;;4977275;28;20462;-66
2020/12/25 03:17:30;;;;;;;5.97;5.40;;;1.50;99.90;;;;;;4976878;28;20477;-66
2020/12/25 03:19:56;;;;;;;7.40;4.50;;;1.60;99.90;;;;;;4976470;28;20454;-66
2020/12/25 03:22:23;;;;;;;5.60;4.50;;;1.50;99.90;;;;;;4976491;28;20466;-66
2020/12/25 03:24:49;;;;;;;9.30;4.70;;;1.50;99.90;;;;;;4976480;28;20456;-66
2020/12/25 03:27:15;;;;;;;5.27;4.03;;;1.40;99.90;;;;;;4976411;28;20517;-66
2020/12/25 03:29:42;;;;;;;8.53;4.20;;;1.50;99.90;;;;;;4976101;28;20498;-65
2020/12/25 03:32:08;;;;;;;6.83;4.10;;;1.60;99.90;;;;;;4976677;28;20447;-65
2020/12/25 03:34:35;;;;;;;7.30;3.70;;;1.60;99.90;;;;;;4975917;28;20463;-65
2020/12/25 03:37:01;;;;;;;7.60;4.40;;;1.50;99.90;;;;;;4977032;28;20455;-65
2020/12/25 03:39:27;;;;;;;7.80;4.53;;;1.40;99.90;;;;;;4976391;28;20501;-65
2020/12/25 03:41:53;;;;;;;6.63;4.33;;;1.40;99.90;;;;;;4976571;28;20451;-66
2020/12/25 03:44:20;;;;;;;5.83;4.03;;;1.40;99.90;;;;;;4975797;28;20467;-65
2020/12/25 03:46:47;;;;;;;5.47;4.33;;;1.40;99.90;;;;;;4976578;28;20455;-65
2020/12/25 03:49:13;;;;;;;6.57;4.20;;;1.40;99.90;;;;;;4975671;28;20945;-65
2020/12/25 03:51:40;;;;;;;9.60;4.13;;;1.40;99.90;;;;;;4976220;28;20462;-65
2020/12/25 03:54:06;;;;;;;5.13;4.03;;;1.40;99.90;;;;;;4974715;28;20481;-65
2020/12/25 03:56:32;;;;;;;6.10;3.70;;;1.30;99.90;;;;;;4975936;28;20821;-66
2020/12/25 03:58:58;;;;;;;4.80;4.30;;;1.30;99.90;;;;;;4975743;28;20448;-65
2020/12/25 04:01:25;;;;;;;8.13;4.20;;;1.40;99.90;;;;;;4975952;28;20954;-65
2020/12/25 04:03:52;;;;;;;6.30;4.03;;;1.40;99.90;;;;;;4975425;28;20837;-66
2020/12/25 04:06:18;;;;;;;5.63;4.20;;;1.30;99.90;;;;;;4976144;28;20451;-66
2020/12/25 04:08:45;;;;;;;6.70;4.70;;;0.70;99.90;;;;;;4975628;28;20551;-66
2020/12/25 04:11:11;;;;;;;7.40;5.03;;;0.60;99.90;;;;;;4975669;28;20483;-66
2020/12/25 04:13:38;;;;;;;6.67;4.83;;;0.60;99.90;;;;;;4975015;28;20482;-66
2020/12/25 04:16:04;;;;;;;7.40;5.10;;;0.50;99.90;;;;;;4975857;28;20804;-66
2020/12/25 04:18:31;;;;;;;7.20;5.00;;;0.50;99.90;;;;;;4975612;28;20451;-66
2020/12/25 04:20:58;;;;;;;6.47;4.20;;;0.50;99.90;;;;;;4975716;28;20443;-66
2020/12/25 04:23:25;;;;;;;6.27;4.40;;;0.40;99.90;;;;;;4975034;28;20990;-65
2020/12/25 04:25:51;;;;;;;5.90;4.53;;;0.40;99.90;;;;;;4975454;28;20451;-66
2020/12/25 04:28:17;;;;;;;5.27;4.77;;;0.40;99.90;;;;;;4975659;28;20452;-66
2020/12/25 04:30:44;;;;;;;6.47;4.57;;;0.40;99.90;;;;;;4975546;28;20483;-66
2020/12/25 04:33:10;;;;;;;8.10;4.50;;;0.40;99.90;;;;;;4975202;28;20459;-65
2020/12/25 04:35:36;;;;;;;5.13;4.20;;;0.40;99.90;;;;;;4975012;28;20951;-66
2020/12/25 04:38:03;;;;;;;7.60;4.60;;;0.30;99.90;;;;;;4977459;28;20454;-66
2020/12/25 04:40:31;;;;;;;6.37;4.60;;;0.30;99.90;;;;;;4977601;28;20457;-66
2020/12/25 04:42:59;;;;;;;9.70;4.53;;;0.30;99.90;;;;;;4975608;28;20475;-66
2020/12/25 04:45:25;;;;;;;6.30;4.63;;;0.30;99.90;;;;;;4975264;28;20451;-66
2020/12/25 04:47:52;;;;;;;5.80;4.60;;;0.30;99.90;;;;;;4975175;28;20451;-66
2020/12/25 04:50:19;;;;;;;6.03;4.23;;;0.30;99.90;;;;;;4974770;28;20475;-65
2020/12/25 04:52:48;;;;;;;6.50;4.77;;;0.20;99.90;;;;;;4974885;28;20475;-66
2020/12/25 04:55:15;;;;;;;4.90;4.40;;;0.20;99.90;;;;;;4974787;28;20468;-66
2020/12/25 04:57:41;;;;;;;5.73;4.30;;;0.20;99.90;;;;;;4974815;28;20543;-65
2020/12/25 05:00:16;;;;;;;8.10;4.90;;;0.20;99.90;;;;;;4975751;28;20454;-66
2020/12/25 05:02:43;;;;;;;6.87;4.60;;;0.20;99.90;;;;;;4974052;28;20483;-66
2020/12/25 05:05:10;;;;;;;7.90;4.40;;;0.20;99.90;;;;;;4975100;28;20451;-66
2020/12/25 05:07:37;;;;;;;10.20;4.97;;;0.20;99.90;;;;;;4975463;28;20510;-66
2020/12/25 05:10:07;;;;;;;6.40;4.57;;;0.10;99.90;;;;;;4975088;28;20495;-65
2020/12/25 05:12:35;;;;;;;6.73;5.00;;;0.10;99.90;;;;;;4975454;28;20483;-66
2020/12/25 05:15:05;;;;;;;7.00;4.87;;;0.10;99.90;;;;;;4974429;28;20455;-66
2020/12/25 05:17:32;;;;;;;7.97;4.67;;;0.10;99.90;;;;;;4974109;28;20474;-66
2020/12/25 05:19:59;;;;;;;6.07;5.50;;;0.10;99.90;;;;;;4974749;28;20451;-66
2020/12/25 05:22:26;;;;;;;8.80;4.93;;;0.10;99.90;;;;;;4974486;28;20459;-66
2020/12/25 05:24:52;;;;;;;7.60;5.20;;;0.00;99.90;;;;;;4974454;28;20451;-66
2020/12/25 05:27:23;;;;;;;7.73;5.30;;;0.00;99.90;;;;;;4974688;28;20971;-66
2020/12/25 05:29:50;;;;;;;4.43;4.10;;;0.00;99.90;;;;;;4974597;28;20534;-66
2020/12/25 05:32:18;;;;;;;7.00;4.97;;;0.00;99.90;;;;;;4973963;28;20462;-66
2020/12/25 05:34:46;;;;;;;6.43;5.60;;;0.00;99.90;;;;;;4975045;28;20485;-66
2020/12/25 05:37:12;;;;;;;9.20;5.33;;;-0.10;99.90;;;;;;4975745;28;20452;-66
2020/12/25 05:39:39;;;;;;;6.77;5.33;;;0.00;99.90;;;;;;4977522;28;20454;-66
2020/12/25 05:42:06;;;;;;;7.43;5.20;;;0.00;99.90;;;;;;4992555;28;20454;-67
2020/12/25 05:44:39;;;;;;;7.53;5.40;;;0.00;99.90;;;;;;4991432;28;20452;-66
2020/12/25 05:47:08;;;;;;;6.67;4.70;;;-0.10;99.90;;;;;;4981014;28;20482;-65
2020/12/25 05:49:34;;;;;;;6.43;5.10;;;-0.10;99.90;;;;;;4974562;28;20455;-65
2020/12/25 05:52:01;;;;;;;6.60;5.40;;;-0.10;99.90;;;;;;4975036;28;20475;-65
2020/12/25 05:54:28;;;;;;;7.70;6.33;;;-0.10;99.90;;;;;;4973172;28;20483;-65
2020/12/25 05:56:56;;;;;;;7.03;5.13;;;-0.10;99.90;;;;;;4973790;28;20458;-65
2020/12/25 05:59:24;;;;;;;6.33;4.57;;;-0.10;99.90;;;;;;4974173;28;20458;-66
2020/12/25 06:01:54;;;;;;;5.27;4.77;;;-0.10;99.90;;;;;;4973755;28;20479;-66
2020/12/25 06:04:23;;;;;;;6.50;5.27;;;-0.20;99.90;;;;;;4974387;28;20472;-66
2020/12/25 06:06:50;;;;;;;5.60;4.93;;;-0.10;99.90;;;;;;4974010;28;20452;-66
2020/12/25 06:09:18;;;;;;;6.20;4.80;;;-0.20;99.90;;;;;;4974115;28;20518;-66
2020/12/25 06:11:48;;;;;;;6.50;5.43;;;-0.20;99.90;;;;;;4973835;28;20571;-66
2020/12/25 06:14:14;;;;;;;8.50;4.73;;;-0.10;99.90;;;;;;4973145;28;20498;-66
2020/12/25 06:16:45;;;;;;;8.90;5.03;;;-0.20;99.90;;;;;;4973886;28;20458;-66
2020/12/25 06:19:21;;;;;;;8.03;4.87;;;-0.20;99.90;;;;;;4974128;28;20455;-66
2020/12/25 06:21:53;;;;;;;6.93;4.80;;;-0.20;99.90;;;;;;4970228;28;20951;-66
2020/12/25 06:24:22;;;;;;;6.40;5.33;;;-0.20;99.90;;;;;;4974125;28;20873;-66
2020/12/25 06:26:53;;;;;;;6.07;5.47;;;-0.20;99.90;;;;;;4955521;29;20449;-65
2020/12/25 06:29:21;;;;;;;7.33;5.13;;;-0.30;99.90;;;;;;4962561;28;20460;-66
2020/12/25 06:31:48;;;;;;;5.77;5.27;;;-0.30;99.90;;;;;;4973573;28;20491;-65
2020/12/25 06:34:15;;;;;;;9.87;5.70;;;-0.30;99.90;;;;;;4973136;28;20542;-66
2020/12/25 06:36:46;;;;;;;7.70;5.37;;;-0.30;99.90;;;;;;4973047;28;20448;-66
2020/12/25 06:39:15;;;;;;;5.50;4.30;;;-0.30;99.90;;;;;;4973515;28;20455;-66
2020/12/25 06:41:41;;;;;;;7.20;5.40;;;-0.30;99.90;;;;;;4973371;28;20455;-65
2020/12/25 06:44:09;;;;;;;6.37;5.77;;;-0.30;99.90;;;;;;4972019;28;20476;-66
2020/12/25 06:46:35;;;;;;;11.03;5.03;;;-0.30;99.90;;;;;;4973158;28;20455;-65
2020/12/25 06:49:06;;;;;;;6.97;4.80;;;-0.30;99.90;;;;;;4973662;28;20526;-65
2020/12/25 06:51:40;;;;;;;8.47;5.07;;;-0.30;99.90;;;;;;4973020;28;20483;-65
2020/12/25 06:54:06;;;;;;;5.37;4.97;;;-0.30;99.90;;;;;;4972932;28;20475;-66
2020/12/25 06:56:41;;;;;;;8.30;4.80;;;-0.30;99.90;;;;;;4973567;28;20456;-66
2020/12/25 06:59:14;;;;;;;6.93;4.97;;;-0.30;99.90;;;;;;4973532;28;20451;-65
2020/12/25 07:01:42;;;;;;;8.03;5.13;;;-0.30;99.90;;;;;;4973497;28;20434;-65
2020/12/25 07:04:22;;;;;;;7.63;5.10;;;-0.30;99.90;;;;;;4972274;28;20499;-66
2020/12/25 07:06:52;;;;;;;7.27;5.00;;;-0.30;99.90;;;;;;4973442;28;20455;-66
2020/12/25 07:09:19;;;;;;;7.47;4.93;;;-0.20;99.90;;;;;;4973025;28;20514;-66
2020/12/25 07:11:50;;;;;;;5.30;4.27;;;-0.30;99.90;;;;;;4972208;28;20506;-66
2020/12/25 07:14:17;;;;;;;6.57;4.23;;;-0.30;99.90;;;;;;4972031;28;21029;-65
2020/12/25 07:16:43;;;;;;;5.27;4.23;;;-0.30;99.90;;;;;;4972308;28;20482;-65
2020/12/25 07:19:10;;;;;;;5.00;4.43;;;-0.30;99.90;;;;;;4973261;28;20451;-66
2020/12/25 07:21:36;;;;;;;5.17;4.63;;;-0.30;99.90;;;;;;4972839;28;20502;-65
2020/12/25 07:24:03;;;;;;;4.70;4.27;;;-0.30;99.90;;;;;;4972468;28;20467;-66
2020/12/25 07:26:29;;;;;;;5.23;4.73;;;-0.30;99.90;;;;;;4972286;28;20452;-66
2020/12/25 07:28:57;;;;;;;10.37;4.83;;;-0.30;99.90;;;;;;4972902;28;20459;-66
2020/12/25 07:31:24;;;;;;;10.30;5.20;;;-0.30;99.90;;;;;;4972120;28;20483;-66
2020/12/25 07:33:55;;;;;;;7.80;5.03;;;-0.30;99.90;;;;;;4972649;28;20471;-66
2020/12/25 07:36:24;;;;;;;7.93;4.80;;;-0.30;99.90;;;;;;4972622;28;20464;-66
2020/12/25 07:39:01;;;;;;;6.03;4.40;;;-0.30;99.90;;;;;;4972612;28;20459;-66
2020/12/25 07:41:28;;;;;;;5.87;4.20;;;-0.30;99.90;;;;;;4972464;28;20454;-66
2020/12/25 07:43:57;;;;;;;5.23;4.17;;;-0.30;99.90;;;;;;4972369;28;20819;-66
2020/12/25 07:46:25;;;;;;;7.57;4.87;;;-0.30;99.90;;;;;;4973133;28;20462;-68
2020/12/25 07:48:55;;;;;;;5.50;4.30;;;-0.20;99.90;;;;;;4973295;28;20447;-67
2020/12/25 07:51:22;;;;;;;5.87;4.53;;;-0.20;99.90;;;;;;4975085;28;20482;-71
2020/12/25 07:53:49;;;;;;;10.07;4.10;;;5.50;99.90;;;;;;4972411;28;20474;-69
2020/12/25 07:56:20;;;;;;;9.90;3.80;;;10.30;99.90;;;;;;4974388;28;20467;-66
2020/12/25 07:58:48;;;;;;;5.13;2.80;;;13.20;99.90;;;;;;4976149;28;20458;-65
2020/12/25 08:01:17;;;;;;;8.17;2.83;;;14.20;99.90;;;;;;4975602;28;20828;-64
2020/12/25 08:03:44;;;;;;;4.63;2.33;;;15.50;99.90;;;;;;4975795;28;20467;-65
2020/12/25 08:06:13;;;;;;;4.83;2.80;;;16.40;99.90;;;;;;4975457;28;20470;-66
2020/12/25 08:08:42;;;;;;;6.50;2.63;;;17.50;99.90;;;;;;4975954;28;20497;-66
2020/12/25 08:11:10;;;;;;;4.10;1.97;;;18.40;99.90;;;;;;4974691;28;21003;-66
2020/12/25 08:13:38;;;;;;;3.50;2.50;;;19.00;99.90;;;;;;4975216;28;20839;-66
2020/12/25 08:16:05;;;;;;;3.33;1.87;;;19.40;99.90;;;;;;4974419;28;20818;-66
2020/12/25 08:18:32;;;;;;;2.80;1.70;;;19.80;99.90;;;;;;4974724;28;20878;-66
2020/12/25 08:21:01;;;;;;;2.33;1.27;;;20.00;99.90;;;;;;4975589;28;20438;-66
2020/12/25 08:23:31;;;;;;;2.87;1.53;;;20.20;99.90;;;;;;4974574;28;20994;-70
2020/12/25 08:25:58;;;;;;;2.97;1.47;;;20.10;99.90;;;;;;4975300;28;20456;-65
2020/12/25 08:28:24;;;;;;;3.43;1.40;;;20.40;99.90;;;;;;4975871;28;20483;-66
2020/12/25 08:30:51;;;;;;;2.53;1.27;;;20.50;99.90;;;;;;4974903;28;20484;-66
2020/12/25 08:33:24;;;;;;;3.10;1.17;;;20.60;99.90;;;;;;4974815;28;20473;-66
2020/12/25 08:35:51;;;;;;;3.53;2.03;;;20.70;99.90;;;;;;4972472;28;20489;-66
2020/12/25 08:38:18;;;;;;;1.90;1.13;;;20.80;99.90;;;;;;4975037;28;20874;-66
2020/12/25 08:40:45;;;;;;;2.03;1.33;;;20.70;99.90;;;;;;4975213;28;20452;-65
2020/12/25 08:43:13;;;;;;;4.73;1.50;;;20.80;99.90;;;;;;4974656;28;20468;-66
2020/12/25 08:45:40;;;;;;;1.90;1.33;;;20.90;99.90;;;;;;4974348;28;20459;-65
2020/12/25 08:48:11;;;;;;;2.23;1.17;;;20.90;99.90;;;;;;4975026;28;20454;-65
2020/12/25 08:50:39;;;;;;;1.90;1.23;;;21.00;99.90;;;;;;4974399;28;20542;-66
2020/12/25 08:53:15;;;;;;;3.60;1.70;;;20.90;99.90;;;;;;4974611;28;20966;-65
2020/12/25 08:55:42;;;;;;;3.30;1.20;;;20.90;99.90;;;;;;4971904;28;20482;-65
2020/12/25 08:58:08;;;;;;;3.13;1.33;;;20.90;99.90;;;;;;4974871;28;20447;-64
2020/12/25 09:00:34;;;;;;;5.10;1.60;;;21.00;99.90;;;;;;4973812;28;20477;-65
2020/12/25 09:03:01;;;;;;;2.90;1.40;;;21.00;99.90;;;;;;4974606;28;20479;-70
2020/12/25 09:05:27;;;;;;;4.70;1.30;;;21.00;99.90;;;;;;4971271;28;20459;-70
2020/12/25 09:07:53;;;;;;;2.70;1.43;;;21.00;99.90;;;;;;4973079;28;20463;-70
2020/12/25 09:10:20;;;;;;;3.47;1.50;;;21.00;99.90;;;;;;4971371;28;20495;-69
2020/12/25 09:12:47;;;;;;;3.20;1.80;;;21.00;99.90;;;;;;4970502;28;20506;-70
2020/12/25 09:15:14;;;;;;;2.30;1.33;;;21.00;99.90;;;;;;4972745;28;20459;-70
2020/12/25 09:17:40;;;;;;;3.93;1.40;;;21.10;99.90;;;;;;4993536;23;20582;-69
2020/12/25 09:20:06;;;;;;;2.77;1.50;;;21.00;99.90;;;;;;4991961;28;20442;-69
2020/12/25 09:22:33;;;;;;;1.53;1.00;;;21.00;99.90;;;;;;4975245;28;21016;-70
2020/12/25 09:24:59;;;;;;;3.10;1.20;;;21.10;99.90;;;;;;4982057;28;20516;-69
2020/12/25 09:27:26;;;;;;;3.70;1.33;;;21.10;99.90;;;;;;4975479;28;20475;-69
2020/12/25 09:29:53;;;;;;;2.63;1.60;;;21.10;99.90;;;;;;4972276;28;20881;-69
2020/12/25 09:32:19;;;;;;;2.60;1.40;;;21.10;99.90;;;;;;4990739;28;20474;-69
2020/12/25 09:34:45;;;;;;;2.67;1.33;;;21.10;99.90;;;;;;4987341;28;20473;-69
2020/12/25 09:37:11;;;;;;;2.73;1.70;;;21.10;99.90;;;;;;4990882;28;21016;-69
2020/12/25 09:39:39;;;;;;;2.40;1.33;;;21.00;99.90;;;;;;4993361;28;20450;-69
2020/12/25 09:42:05;;;;;;;3.60;1.90;;;21.10;99.90;;;;;;4990615;28;20498;-67
2020/12/25 09:44:32;;;;;;;4.20;2.10;;;17.70;99.90;;;;;;4993290;28;20450;-66
2020/12/25 09:46:59;;;;;;;8.63;2.90;;;15.10;99.90;;;;;;4990932;28;20870;-65
2020/12/25 09:49:25;;;;;;;4.90;2.27;;;12.90;99.90;;;;;;4993471;28;20545;-66
2020/12/25 09:51:51;;;;;;;4.60;2.30;;;13.80;99.90;;;;;;4985695;28;20487;-66
2020/12/25 09:54:17;;;;;;;3.70;3.00;;;14.30;99.90;;;;;;4973395;28;20509;-66
2020/12/25 09:56:44;;;;;;;4.33;2.77;;;14.10;99.90;;;;;;4972527;28;20863;-67
2020/12/25 09:59:10;;;;;;;3.73;2.40;;;13.20;99.90;;;;;;4976002;28;20520;-67
2020/12/25 10:01:37;;;;;;;3.83;2.40;;;12.80;99.90;;;;;;4976330;28;20456;-65
2020/12/25 10:04:03;;;;;;;3.47;2.60;;;13.30;99.90;;;;;;4984415;28;20536;-67
2020/12/25 10:06:29;;;;;;;4.33;2.37;;;13.20;99.90;;;;;;4979917;28;20493;-66
2020/12/25 10:08:56;;;;;;;4.23;2.60;;;13.60;99.90;;;;;;4973304;28;20502;-65
2020/12/25 10:11:22;;;;;;;5.40;2.27;;;13.70;99.90;;;;;;4981817;28;20490;-68
2020/12/25 10:13:48;;;;;;;3.40;2.13;;;13.70;99.90;;;;;;4981401;28;20937;-68
2020/12/25 10:16:15;;;;;;;4.17;2.20;;;14.00;99.90;;;;;;4971929;28;20506;-68
2020/12/25 10:18:42;;;;;;;2.93;2.40;;;13.70;99.90;;;;;;4991705;28;20800;-68
2020/12/25 10:21:08;;;;;;;3.43;2.47;;;14.00;99.90;;;;;;4985722;28;20448;-69
2020/12/25 10:23:34;;;;;;;3.03;2.30;;;14.50;99.90;;;;;;4971856;28;21053;-68
2020/12/25 10:26:01;;;;;;;4.50;2.90;;;14.40;99.90;;;;;;4982986;28;20489;-68
2020/12/25 10:28:27;;;;;;;4.90;2.57;;;14.50;99.90;;;;;;4992379;28;20467;-69
2020/12/25 10:30:53;;;;;;;15.93;4.97;;;14.70;99.90;;;;;;4980841;28;20493;-67
2020/12/25 10:33:20;;;;;;;8.63;3.73;;;15.60;99.90;;;;;;4985923;28;21061;-69
2020/12/25 10:35:47;;;;;;;4.27;2.53;;;15.00;99.90;;;;;;4974322;28;20955;-69
2020/12/25 10:38:13;;;;;;;4.73;2.60;;;15.50;99.90;;;;;;4972937;28;20467;-68
2020/12/25 10:40:39;;;;;;;5.93;2.30;;;14.80;99.90;;;;;;4984606;28;20864;-69
2020/12/25 10:43:06;;;;;;;4.07;2.33;;;15.00;99.90;;;;;;4977942;28;20477;-71
2020/12/25 10:45:32;;;;;;;3.40;2.07;;;14.80;99.90;;;;;;4972129;28;20826;-69
2020/12/25 10:47:58;;;;;;;3.10;2.40;;;15.00;99.90;;;;;;4971868;28;20491;-69
2020/12/25 10:50:25;;;;;;;2.70;2.07;;;14.80;99.90;;;;;;4979878;28;20479;-69
2020/12/25 10:52:54;;;;;;;4.07;2.53;;;14.30;99.90;;;;;;4982317;28;20502;-68
2020/12/25 10:55:21;;;;;;;4.03;1.90;;;;;;;;;;4984789;28;20858;-69
2020/12/25 10:57:48;;;;;;;3.50;1.63;;;;;;;;;;4974740;28;20491;-67
2020/12/25 11:00:14;;;;;;;3.37;1.90;;;;;;;;;;4965098;28;20455;-70
2020/12/25 11:02:41;;;;;;;3.43;2.20;;;;;;;;;;4979662;28;20459;-70
2020/12/25 11:05:07;;;;;;;3.93;2.07;;;;;;;;;;4972577;28;20447;-69
2020/12/25 11:07:34;;;;;;;2.50;1.90;;;;;;;;;;4977331;28;20486;-68
2020/12/25 11:10:01;;;;;;;2.40;1.90;;;;;;;;;;4971616;28;20486;-68
2020/12/25 11:12:28;;;;;;;3.60;1.67;;;;;;;;;;4985140;28;20514;-67
2020/12/25 11:14:54;;;;;;;4.67;2.43;;;;;;;;;;4972289;28;20447;-69
2020/12/25 11:17:21;;;;;;;3.40;1.90;;;;;;;;;;4975430;28;20501;-69
2020/12/25 11:19:48;;;;;;;3.10;2.10;;;;;;;;;;4972374;28;20455;-69
2020/12/25 11:22:15;;;;;;;2.37;1.80;;;;;;;;;;4965119;28;20460;-69
2020/12/25 11:24:42;;;;;;;4.77;2.20;;;;;;;;;;4969828;28;20467;-69
2020/12/25 11:27:09;;;;;;;2.83;1.90;;;;;;;;;;4972484;28;20467;-67
2020/12/25 11:29:36;;;;;;;4.73;3.30;;;;;;;;;;4980115;28;20644;-70
2020/12/25 11:32:03;;;;;;;3.27;2.20;;;;;;;;;;4988608;28;20494;-69
2020/12/25 11:34:29;;;;;;;3.67;1.87;;;;;;;;;;4976178;28;20510;-71
2020/12/25 11:36:56;;;;;;;3.30;2.47;;;;;;;;;;4983164;28;20485;-71
2020/12/25 11:39:22;;;;;;;2.83;2.00;;;;;;;;;;4975383;28;20962;-70
2020/12/25 11:41:49;;;;;;;4.37;2.60;;;;;;;;;;4976202;28;20702;-71
2020/12/25 11:44:16;;;;;;;3.73;2.23;;;;;;;;;;4974758;28;20466;-71
2020/12/25 11:46:43;;;;;;;2.40;1.80;;;;;;;;;;4976065;28;20494;-72
2020/12/25 11:49:10;;;;;;;2.60;1.43;;;;;;;;;;4975812;28;20463;-71
2020/12/25 11:51:36;;;;;;;2.93;1.90;;;;;;;;;;4963456;28;20485;-72
2020/12/25 11:54:03;;;;;;;3.50;1.63;;;;;;;;;;4978600;28;20455;-70
2020/12/25 11:56:30;;;;;;;7.63;1.93;;;;;;;;;;4978983;28;20482;-72
2020/12/25 11:58:57;;;;;;;4.97;1.80;;;;;;;;;;4974695;28;20467;-70
2020/12/25 12:01:25;;;;;;;4.37;2.00;;;;;;;;;;4966141;28;20534;-71
2020/12/25 12:03:51;;;;;;;2.10;1.80;;;;;;;;;;4963363;28;20508;-69
2020/12/25 12:06:18;;;;;;;3.77;1.97;;;;;;;;;;4959684;28;20448;-71
2020/12/25 12:08:45;;;;;;;4.30;2.20;;;;;;;;;;4975134;28;20823;-72
2020/12/25 12:11:12;;;;;;;5.83;2.17;;;;;;;;;;4975032;28;20487;-72
2020/12/25 12:13:38;;;;;;;2.63;1.90;;;;;;;;;;4976221;28;20447;-73
2020/12/25 12:16:05;;;;;;;4.53;1.93;;;;;;;;;;4976363;28;20458;-69
2020/12/25 12:18:32;;;;;;;4.47;1.90;;;;;;;;;;4974962;28;20832;-68
2020/12/25 12:20:59;;;;;;;2.83;1.80;;;;;;;;;;4975235;28;20531;-67
2020/12/25 12:23:26;;;;;;;2.63;1.83;;;;;;;;;;4975086;28;20458;-67
2020/12/25 12:25:52;;;;;;;2.90;1.70;;;;;;;;;;4975487;28;20964;-68
2020/12/25 12:28:19;;;;;;;2.30;1.67;;;;;;;;;;4974727;28;20475;-67
2020/12/25 12:30:47;;;;;;;2.40;1.90;;;;;;;;;;4974461;28;20483;-68
2020/12/25 12:33:14;;;;;;;2.93;1.83;;;;;;;;;;4974417;28;20471;-68
2020/12/25 12:35:42;;;;;;;3.90;1.83;;;;;;;;;;4974873;28;20455;-68
2020/12/25 12:38:09;;;;;;;3.20;2.20;;;;;;;;;;4975257;28;20476;-68
2020/12/25 12:40:35;;;;;;;2.33;1.80;;;;;;;;;;4974767;28;20454;-67
2020/12/25 12:43:02;;;;;;;2.90;2.13;;;;;;;;;;4975432;28;20455;-67
2020/12/25 12:45:29;;;;;;;3.80;2.20;;;;;;;;;;4974939;28;20457;-66
2020/12/25 12:47:55;;;;;;;5.07;2.53;;;;;;;;;;4975605;28;20474;-67
2020/12/25 12:50:22;;;;;;;6.00;2.40;;;;;;;;;;4975030;28;20828;-68
2020/12/25 12:52:49;;;;;;;2.10;1.90;;;;;;;;;;4975131;28;20455;-67
2020/12/25 12:55:16;;;;;;;4.67;1.93;;;;;;;;;;4974913;28;20454;-67
2020/12/25 12:57:42;;;;;;;2.90;2.30;;;;;;;;;;4974670;28;20855;-67
2020/12/25 13:00:09;;;;;;;3.50;2.00;;;;;;;;;;4975673;28;20463;-67
2020/12/25 13:02:36;;;;;;;3.63;1.83;;;;;;;;;;4975141;28;20451;-67
2020/12/25 13:05:02;;;;;;;2.53;1.90;;;;;;;;;;4975123;28;20447;-67
2020/12/25 13:07:30;;;;;;;3.13;1.93;;;;;;;;;;4975118;28;20483;-66
2020/12/25 13:09:58;;;;;;;4.80;2.03;;;;;;;;;;4975089;28;20550;-67